Airport Name : Agartala

Other Name : Agartala

ICAO : VEAT

IATA : IXA

FAA :

Latitude : 23.886978

Longitude : 91.24045

Country : India

Local Date and Time : 03 Dec 2020 15:29

 

TAF (Terminal Aerodrome Forecast)

TAF VEAT 030800Z 0309/0318 00000KT 3000 HZ FEW020 BECMG 0310/0312 4000 HZ

 

METAR (METeorological Aerodrome Report)

VEAT 030930Z 00000KT 3000 HZ FEW020 27/19 Q1011 NOSIG

VEAT 030900Z 00000KT 3000 HZ FEW020 27/19 Q1011 NOSIG

VEAT 030830Z 00000KT 3000 HZ FEW020 27/19 Q1011 NOSIG

VEAT 030800Z 00000KT 3000 HZ FEW020 27/19 Q1012 NOSIG

VEAT 030730Z 33002KT 3000 HZ FEW020 28/19 Q1012 NOSIG

VEAT 030700Z 00000KT 2800 HZ FEW020 28/19 Q1013 BECMG 3000 HZ

VEAT 030630Z 00000KT 2800 HZ FEW020 27/20 Q1013 NOSIG

VEAT 030600Z 00000KT 2800 HZ FEW020 27/20 Q1014 NOSIG

To Charter a Jet Click here.